Herzliyya, Israel
Current Conditions -  °F | °C
As of 6:50 PM on Thursday 30 Oct 2014 (Local Time) from LLSD Reporting Station
Few Clouds Few Clouds  
Wind Chill: 70°   Ceiling: Unl
Heat Index: 70°   Visibility: 6mi
Dew Point: 64°   Wind: 1mph
Humidity: 83%   Direction: NA
Pressure: 29.91"   Gusts: NA
Location:  32.19°N, 34.81°E
Report Text: LLSD 301550Z VRB01KT 9999 FEW020TCU 21/18 Q1013 RMK SCT100
Loading
Personal Weather Stations






























Interactive Weather Map
Tropical Storm Tracking
New forecast layout! Learn more

10-Day Weather Forecast

Advertisements
Track Severe Weather on mobile